sensor_id;sensor_type;location;lat;lon;timestamp;P1;durP1;ratioP1;P2;durP2;ratioP2
16484;SDS011;8353;47.856;12.344;2022-11-20T00:01:35;1.20;;;1.10;;
16484;SDS011;8353;47.856;12.344;2022-11-20T00:04:05;3.37;;;1.07;;
16484;SDS011;8353;47.856;12.344;2022-11-20T00:06:36;2.83;;;1.20;;
16484;SDS011;8353;47.856;12.344;2022-11-20T00:09:06;1.20;;;1.10;;
16484;SDS011;8353;47.856;12.344;2022-11-20T00:11:41;2.17;;;1.13;;
16484;SDS011;8353;47.856;12.344;2022-11-20T00:14:11;0.90;;;0.90;;
16484;SDS011;8353;47.856;12.344;2022-11-20T00:16:42;1.10;;;0.90;;
16484;SDS011;8353;47.856;12.344;2022-11-20T00:19:13;1.97;;;1.20;;
16484;SDS011;8353;47.856;12.344;2022-11-20T00:21:44;1.17;;;1.00;;
16484;SDS011;8353;47.856;12.344;2022-11-20T00:24:14;1.10;;;1.00;;
16484;SDS011;8353;47.856;12.344;2022-11-20T00:26:46;1.00;;;0.80;;
16484;SDS011;8353;47.856;12.344;2022-11-20T00:29:17;1.20;;;1.00;;
16484;SDS011;8353;47.856;12.344;2022-11-20T00:31:47;3.37;;;1.10;;
16484;SDS011;8353;47.856;12.344;2022-11-20T00:34:18;1.00;;;0.90;;
16484;SDS011;8353;47.856;12.344;2022-11-20T00:36:48;1.00;;;0.90;;
16484;SDS011;8353;47.856;12.344;2022-11-20T00:39:18;1.93;;;0.87;;
16484;SDS011;8353;47.856;12.344;2022-11-20T00:41:50;1.37;;;0.93;;
16484;SDS011;8353;47.856;12.344;2022-11-20T00:44:21;1.57;;;0.90;;
16484;SDS011;8353;47.856;12.344;2022-11-20T00:46:52;1.27;;;0.80;;
16484;SDS011;8353;47.856;12.344;2022-11-20T00:49:23;1.20;;;0.90;;
16484;SDS011;8353;47.856;12.344;2022-11-20T00:51:54;1.23;;;0.87;;
16484;SDS011;8353;47.856;12.344;2022-11-20T00:54:24;0.97;;;0.73;;
16484;SDS011;8353;47.856;12.344;2022-11-20T00:56:56;1.10;;;0.90;;
16484;SDS011;8353;47.856;12.344;2022-11-20T00:59:26;1.10;;;1.00;;
16484;SDS011;8353;47.856;12.344;2022-11-20T01:01:57;0.73;;;0.70;;
16484;SDS011;8353;47.856;12.344;2022-11-20T01:04:27;1.30;;;0.70;;
16484;SDS011;8353;47.856;12.344;2022-11-20T01:06:58;0.70;;;0.70;;
16484;SDS011;8353;47.856;12.344;2022-11-20T01:09:28;0.80;;;0.80;;
16484;SDS011;8353;47.856;12.344;2022-11-20T01:12:01;1.77;;;0.90;;
16484;SDS011;8353;47.856;12.344;2022-11-20T01:14:31;1.17;;;1.00;;
16484;SDS011;8353;47.856;12.344;2022-11-20T01:17:01;1.00;;;0.77;;
16484;SDS011;8353;47.856;12.344;2022-11-20T01:19:32;0.70;;;0.70;;
16484;SDS011;8353;47.856;12.344;2022-11-20T01:22:03;2.00;;;1.00;;
16484;SDS011;8353;47.856;12.344;2022-11-20T01:24:33;1.00;;;0.80;;
16484;SDS011;8353;47.856;12.344;2022-11-20T01:27:05;0.70;;;0.67;;
16484;SDS011;8353;47.856;12.344;2022-11-20T01:29:35;2.03;;;0.87;;
16484;SDS011;8353;47.856;12.344;2022-11-20T01:32:06;1.50;;;0.70;;
16484;SDS011;8353;47.856;12.344;2022-11-20T01:34:36;1.70;;;1.20;;
16484;SDS011;8353;47.856;12.344;2022-11-20T01:37:06;1.37;;;1.10;;
16484;SDS011;8353;47.856;12.344;2022-11-20T01:39:37;1.47;;;0.90;;
16484;SDS011;8353;47.856;12.344;2022-11-20T01:42:09;1.20;;;0.93;;
16484;SDS011;8353;47.856;12.344;2022-11-20T01:44:57;1.40;;;1.10;;
16484;SDS011;8353;47.856;12.344;2022-11-20T01:47:30;1.20;;;1.00;;
16484;SDS011;8353;47.856;12.344;2022-11-20T01:50:05;2.87;;;1.23;;
16484;SDS011;8353;47.856;12.344;2022-11-20T01:52:47;1.50;;;1.00;;
16484;SDS011;8353;47.856;12.344;2022-11-20T01:55:23;0.80;;;0.80;;
16484;SDS011;8353;47.856;12.344;2022-11-20T01:57:59;1.20;;;1.10;;
16484;SDS011;8353;47.856;12.344;2022-11-20T02:00:34;0.90;;;0.90;;
16484;SDS011;8353;47.856;12.344;2022-11-20T02:03:05;1.03;;;0.97;;
16484;SDS011;8353;47.856;12.344;2022-11-20T02:05:39;1.30;;;1.20;;
16484;SDS011;8353;47.856;12.344;2022-11-20T02:08:15;1.10;;;1.00;;
16484;SDS011;8353;47.856;12.344;2022-11-20T02:10:46;2.77;;;1.17;;
16484;SDS011;8353;47.856;12.344;2022-11-20T02:13:17;1.57;;;1.30;;
16484;SDS011;8353;47.856;12.344;2022-11-20T02:16:08;1.30;;;1.20;;
16484;SDS011;8353;47.856;12.344;2022-11-20T02:18:41;1.40;;;1.13;;
16484;SDS011;8353;47.856;12.344;2022-11-20T02:21:14;1.23;;;1.13;;
16484;SDS011;8353;47.856;12.344;2022-11-20T02:23:56;1.93;;;1.30;;
16484;SDS011;8353;47.856;12.344;2022-11-20T02:26:35;1.63;;;1.10;;
16484;SDS011;8353;47.856;12.344;2022-11-20T02:29:10;2.70;;;1.37;;
16484;SDS011;8353;47.856;12.344;2022-11-20T02:31:43;1.80;;;1.20;;
16484;SDS011;8353;47.856;12.344;2022-11-20T02:34:15;1.53;;;1.30;;
16484;SDS011;8353;47.856;12.344;2022-11-20T02:36:45;1.30;;;1.20;;
16484;SDS011;8353;47.856;12.344;2022-11-20T02:39:19;1.87;;;1.27;;
16484;SDS011;8353;47.856;12.344;2022-11-20T02:41:52;1.23;;;1.13;;
16484;SDS011;8353;47.856;12.344;2022-11-20T02:44:23;1.30;;;1.10;;
16484;SDS011;8353;47.856;12.344;2022-11-20T02:46:56;2.13;;;1.17;;
16484;SDS011;8353;47.856;12.344;2022-11-20T02:49:26;1.23;;;1.13;;
16484;SDS011;8353;47.856;12.344;2022-11-20T02:51:57;1.60;;;1.50;;
16484;SDS011;8353;47.856;12.344;2022-11-20T02:54:29;1.70;;;1.40;;
16484;SDS011;8353;47.856;12.344;2022-11-20T02:56:59;1.77;;;1.27;;
16484;SDS011;8353;47.856;12.344;2022-11-20T02:59:30;2.17;;;1.40;;
16484;SDS011;8353;47.856;12.344;2022-11-20T03:02:00;1.73;;;1.20;;
16484;SDS011;8353;47.856;12.344;2022-11-20T03:04:31;1.30;;;1.20;;
16484;SDS011;8353;47.856;12.344;2022-11-20T03:07:02;1.40;;;1.20;;
16484;SDS011;8353;47.856;12.344;2022-11-20T03:09:34;1.40;;;1.30;;
16484;SDS011;8353;47.856;12.344;2022-11-20T03:12:05;1.47;;;1.20;;
16484;SDS011;8353;47.856;12.344;2022-11-20T03:14:36;1.70;;;1.60;;
16484;SDS011;8353;47.856;12.344;2022-11-20T03:17:06;2.13;;;1.23;;
16484;SDS011;8353;47.856;12.344;2022-11-20T03:19:37;2.00;;;1.50;;
16484;SDS011;8353;47.856;12.344;2022-11-20T03:22:08;1.27;;;1.10;;
16484;SDS011;8353;47.856;12.344;2022-11-20T03:24:40;1.30;;;1.20;;
16484;SDS011;8353;47.856;12.344;2022-11-20T03:27:10;1.33;;;1.00;;
16484;SDS011;8353;47.856;12.344;2022-11-20T03:29:41;1.20;;;1.10;;
16484;SDS011;8353;47.856;12.344;2022-11-20T03:32:11;3.93;;;2.77;;
16484;SDS011;8353;47.856;12.344;2022-11-20T03:34:42;1.03;;;0.97;;
16484;SDS011;8353;47.856;12.344;2022-11-20T03:37:12;1.30;;;1.20;;
16484;SDS011;8353;47.856;12.344;2022-11-20T03:39:44;1.63;;;1.10;;
16484;SDS011;8353;47.856;12.344;2022-11-20T03:42:14;1.83;;;1.70;;
16484;SDS011;8353;47.856;12.344;2022-11-20T03:44:58;2.03;;;1.20;;
16484;SDS011;8353;47.856;12.344;2022-11-20T03:47:29;1.30;;;1.20;;
16484;SDS011;8353;47.856;12.344;2022-11-20T03:50:00;3.07;;;1.50;;
16484;SDS011;8353;47.856;12.344;2022-11-20T03:52:30;1.33;;;1.23;;
16484;SDS011;8353;47.856;12.344;2022-11-20T03:55:02;2.73;;;1.40;;
16484;SDS011;8353;47.856;12.344;2022-11-20T03:57:32;1.40;;;1.20;;
16484;SDS011;8353;47.856;12.344;2022-11-20T04:00:03;1.80;;;1.70;;
16484;SDS011;8353;47.856;12.344;2022-11-20T04:02:33;1.90;;;1.40;;
16484;SDS011;8353;47.856;12.344;2022-11-20T04:05:04;2.10;;;1.53;;
16484;SDS011;8353;47.856;12.344;2022-11-20T04:07:35;2.47;;;1.60;;
16484;SDS011;8353;47.856;12.344;2022-11-20T04:10:07;1.97;;;1.37;;
16484;SDS011;8353;47.856;12.344;2022-11-20T04:12:38;1.40;;;1.20;;
16484;SDS011;8353;47.856;12.344;2022-11-20T04:15:08;1.70;;;1.60;;
16484;SDS011;8353;47.856;12.344;2022-11-20T04:17:39;1.93;;;1.70;;
16484;SDS011;8353;47.856;12.344;2022-11-20T04:20:10;2.00;;;1.80;;
16484;SDS011;8353;47.856;12.344;2022-11-20T04:22:40;2.70;;;1.67;;
16484;SDS011;8353;47.856;12.344;2022-11-20T04:25:12;1.60;;;1.20;;
16484;SDS011;8353;47.856;12.344;2022-11-20T04:27:43;2.27;;;1.40;;
16484;SDS011;8353;47.856;12.344;2022-11-20T04:30:14;2.37;;;2.17;;
16484;SDS011;8353;47.856;12.344;2022-11-20T04:32:44;2.83;;;1.80;;
16484;SDS011;8353;47.856;12.344;2022-11-20T04:35:15;1.80;;;1.60;;
16484;SDS011;8353;47.856;12.344;2022-11-20T04:37:46;1.93;;;1.73;;
16484;SDS011;8353;47.856;12.344;2022-11-20T04:40:17;2.43;;;2.23;;
16484;SDS011;8353;47.856;12.344;2022-11-20T04:42:48;2.67;;;1.47;;
16484;SDS011;8353;47.856;12.344;2022-11-20T04:45:18;2.03;;;1.83;;
16484;SDS011;8353;47.856;12.344;2022-11-20T04:47:49;2.00;;;1.80;;
16484;SDS011;8353;47.856;12.344;2022-11-20T04:50:19;2.00;;;1.90;;
16484;SDS011;8353;47.856;12.344;2022-11-20T04:52:49;2.70;;;1.70;;
16484;SDS011;8353;47.856;12.344;2022-11-20T04:55:21;1.70;;;1.60;;
16484;SDS011;8353;47.856;12.344;2022-11-20T04:57:52;2.10;;;1.80;;
16484;SDS011;8353;47.856;12.344;2022-11-20T05:00:22;3.20;;;1.80;;
16484;SDS011;8353;47.856;12.344;2022-11-20T05:02:53;1.70;;;1.60;;
16484;SDS011;8353;47.856;12.344;2022-11-20T05:05:23;2.10;;;1.67;;
16484;SDS011;8353;47.856;12.344;2022-11-20T05:07:55;2.00;;;1.80;;
16484;SDS011;8353;47.856;12.344;2022-11-20T05:10:27;1.60;;;1.50;;
16484;SDS011;8353;47.856;12.344;2022-11-20T05:12:58;3.07;;;1.50;;
16484;SDS011;8353;47.856;12.344;2022-11-20T05:15:29;1.67;;;1.57;;
16484;SDS011;8353;47.856;12.344;2022-11-20T05:17:59;1.73;;;1.47;;
16484;SDS011;8353;47.856;12.344;2022-11-20T05:20:30;3.73;;;1.80;;
16484;SDS011;8353;47.856;12.344;2022-11-20T05:23:00;1.70;;;1.60;;
16484;SDS011;8353;47.856;12.344;2022-11-20T05:25:32;1.60;;;1.50;;
16484;SDS011;8353;47.856;12.344;2022-11-20T05:28:03;1.80;;;1.70;;
16484;SDS011;8353;47.856;12.344;2022-11-20T05:30:33;2.30;;;1.80;;
16484;SDS011;8353;47.856;12.344;2022-11-20T05:33:04;1.93;;;1.80;;
16484;SDS011;8353;47.856;12.344;2022-11-20T05:35:34;2.87;;;1.70;;
16484;SDS011;8353;47.856;12.344;2022-11-20T05:38:05;2.70;;;2.00;;
16484;SDS011;8353;47.856;12.344;2022-11-20T05:40:37;1.90;;;1.80;;
16484;SDS011;8353;47.856;12.344;2022-11-20T05:43:07;2.20;;;2.00;;
16484;SDS011;8353;47.856;12.344;2022-11-20T05:45:37;2.53;;;2.00;;
16484;SDS011;8353;47.856;12.344;2022-11-20T05:48:08;1.73;;;1.63;;
16484;SDS011;8353;47.856;12.344;2022-11-20T05:50:38;1.93;;;1.77;;
16484;SDS011;8353;47.856;12.344;2022-11-20T05:53:08;1.80;;;1.70;;
16484;SDS011;8353;47.856;12.344;2022-11-20T05:55:40;2.10;;;1.90;;
16484;SDS011;8353;47.856;12.344;2022-11-20T05:58:10;1.60;;;1.50;;
16484;SDS011;8353;47.856;12.344;2022-11-20T06:00:41;2.10;;;1.90;;
16484;SDS011;8353;47.856;12.344;2022-11-20T06:03:12;2.07;;;1.80;;
16484;SDS011;8353;47.856;12.344;2022-11-20T06:05:42;2.80;;;2.00;;
16484;SDS011;8353;47.856;12.344;2022-11-20T06:08:13;1.83;;;1.60;;
16484;SDS011;8353;47.856;12.344;2022-11-20T06:10:44;2.50;;;2.13;;
16484;SDS011;8353;47.856;12.344;2022-11-20T06:13:14;3.03;;;1.90;;
16484;SDS011;8353;47.856;12.344;2022-11-20T06:15:47;1.93;;;1.70;;
16484;SDS011;8353;47.856;12.344;2022-11-20T06:18:18;1.80;;;1.70;;
16484;SDS011;8353;47.856;12.344;2022-11-20T06:20:49;2.10;;;1.90;;
16484;SDS011;8353;47.856;12.344;2022-11-20T06:23:28;1.80;;;1.70;;
16484;SDS011;8353;47.856;12.344;2022-11-20T06:26:02;1.80;;;1.70;;
16484;SDS011;8353;47.856;12.344;2022-11-20T06:28:34;2.00;;;1.80;;
16484;SDS011;8353;47.856;12.344;2022-11-20T06:31:05;1.57;;;1.47;;
16484;SDS011;8353;47.856;12.344;2022-11-20T06:33:36;2.37;;;1.67;;
16484;SDS011;8353;47.856;12.344;2022-11-20T06:36:07;3.23;;;1.70;;
16484;SDS011;8353;47.856;12.344;2022-11-20T06:38:40;2.17;;;1.97;;
16484;SDS011;8353;47.856;12.344;2022-11-20T06:41:12;2.50;;;2.00;;
16484;SDS011;8353;47.856;12.344;2022-11-20T06:43:44;2.37;;;2.17;;
16484;SDS011;8353;47.856;12.344;2022-11-20T06:46:16;1.93;;;1.73;;
16484;SDS011;8353;47.856;12.344;2022-11-20T06:48:47;2.10;;;1.90;;
16484;SDS011;8353;47.856;12.344;2022-11-20T06:51:18;2.00;;;1.60;;
16484;SDS011;8353;47.856;12.344;2022-11-20T06:53:49;2.57;;;1.93;;
16484;SDS011;8353;47.856;12.344;2022-11-20T06:56:21;2.73;;;2.17;;
16484;SDS011;8353;47.856;12.344;2022-11-20T06:58:51;2.20;;;2.00;;
16484;SDS011;8353;47.856;12.344;2022-11-20T07:01:22;2.20;;;1.50;;
16484;SDS011;8353;47.856;12.344;2022-11-20T07:03:52;2.33;;;1.80;;
16484;SDS011;8353;47.856;12.344;2022-11-20T07:06:23;1.60;;;1.50;;
16484;SDS011;8353;47.856;12.344;2022-11-20T07:08:53;1.60;;;1.50;;
16484;SDS011;8353;47.856;12.344;2022-11-20T07:11:25;1.77;;;1.67;;
16484;SDS011;8353;47.856;12.344;2022-11-20T07:13:56;2.83;;;2.10;;
16484;SDS011;8353;47.856;12.344;2022-11-20T07:16:26;2.53;;;2.10;;
16484;SDS011;8353;47.856;12.344;2022-11-20T07:18:57;2.40;;;2.20;;
16484;SDS011;8353;47.856;12.344;2022-11-20T07:21:27;1.73;;;1.60;;
16484;SDS011;8353;47.856;12.344;2022-11-20T07:23:58;2.10;;;1.83;;
16484;SDS011;8353;47.856;12.344;2022-11-20T07:26:30;2.23;;;2.03;;
16484;SDS011;8353;47.856;12.344;2022-11-20T07:29:01;2.10;;;1.90;;
16484;SDS011;8353;47.856;12.344;2022-11-20T07:31:30;1.97;;;1.73;;
16484;SDS011;8353;47.856;12.344;2022-11-20T07:34:13;2.00;;;1.90;;
16484;SDS011;8353;47.856;12.344;2022-11-20T07:36:43;2.73;;;2.43;;
16484;SDS011;8353;47.856;12.344;2022-11-20T07:39:14;2.90;;;1.87;;
16484;SDS011;8353;47.856;12.344;2022-11-20T07:41:46;2.13;;;1.93;;
16484;SDS011;8353;47.856;12.344;2022-11-20T07:44:16;2.10;;;1.90;;
16484;SDS011;8353;47.856;12.344;2022-11-20T07:46:46;2.37;;;2.10;;
16484;SDS011;8353;47.856;12.344;2022-11-20T07:49:17;3.73;;;2.30;;
16484;SDS011;8353;47.856;12.344;2022-11-20T07:51:49;2.13;;;1.90;;
16484;SDS011;8353;47.856;12.344;2022-11-20T07:54:23;1.90;;;1.70;;
16484;SDS011;8353;47.856;12.344;2022-11-20T07:56:55;2.30;;;2.00;;
16484;SDS011;8353;47.856;12.344;2022-11-20T07:59:25;1.60;;;1.50;;
16484;SDS011;8353;47.856;12.344;2022-11-20T08:01:56;3.40;;;3.20;;
16484;SDS011;8353;47.856;12.344;2022-11-20T08:04:26;2.50;;;2.30;;
16484;SDS011;8353;47.856;12.344;2022-11-20T08:06:57;1.70;;;1.60;;
16484;SDS011;8353;47.856;12.344;2022-11-20T08:09:27;1.80;;;1.50;;
16484;SDS011;8353;47.856;12.344;2022-11-20T08:11:59;2.00;;;1.80;;
16484;SDS011;8353;47.856;12.344;2022-11-20T08:14:47;2.07;;;1.70;;
16484;SDS011;8353;47.856;12.344;2022-11-20T08:17:17;2.80;;;1.87;;
16484;SDS011;8353;47.856;12.344;2022-11-20T08:19:48;1.90;;;1.70;;
16484;SDS011;8353;47.856;12.344;2022-11-20T08:22:18;1.63;;;1.33;;
16484;SDS011;8353;47.856;12.344;2022-11-20T08:24:49;2.73;;;1.90;;
16484;SDS011;8353;47.856;12.344;2022-11-20T08:27:21;1.97;;;1.60;;
16484;SDS011;8353;47.856;12.344;2022-11-20T08:29:51;1.67;;;1.57;;
16484;SDS011;8353;47.856;12.344;2022-11-20T08:32:22;2.03;;;1.40;;
16484;SDS011;8353;47.856;12.344;2022-11-20T08:34:53;1.97;;;1.47;;
16484;SDS011;8353;47.856;12.344;2022-11-20T08:37:23;1.30;;;1.20;;
16484;SDS011;8353;47.856;12.344;2022-11-20T08:39:54;1.80;;;1.30;;
16484;SDS011;8353;47.856;12.344;2022-11-20T08:42:26;1.83;;;1.13;;
16484;SDS011;8353;47.856;12.344;2022-11-20T08:44:57;1.50;;;1.20;;
16484;SDS011;8353;47.856;12.344;2022-11-20T08:47:27;2.80;;;1.20;;
16484;SDS011;8353;47.856;12.344;2022-11-20T08:49:57;1.33;;;1.17;;
16484;SDS011;8353;47.856;12.344;2022-11-20T08:52:28;1.03;;;1.00;;
16484;SDS011;8353;47.856;12.344;2022-11-20T08:54:58;2.50;;;1.10;;
16484;SDS011;8353;47.856;12.344;2022-11-20T08:57:32;1.43;;;1.23;;
16484;SDS011;8353;47.856;12.344;2022-11-20T09:00:02;1.20;;;1.10;;
16484;SDS011;8353;47.856;12.344;2022-11-20T09:02:33;0.90;;;0.73;;
16484;SDS011;8353;47.856;12.344;2022-11-20T09:05:04;0.80;;;0.80;;
16484;SDS011;8353;47.856;12.344;2022-11-20T09:07:35;1.27;;;1.10;;
16484;SDS011;8353;47.856;12.344;2022-11-20T09:10:05;1.30;;;1.20;;
16484;SDS011;8353;47.856;12.344;2022-11-20T09:12:38;1.83;;;0.93;;
16484;SDS011;8353;47.856;12.344;2022-11-20T09:15:11;1.30;;;1.10;;
16484;SDS011;8353;47.856;12.344;2022-11-20T09:17:41;1.27;;;0.90;;
16484;SDS011;8353;47.856;12.344;2022-11-20T09:20:13;0.80;;;0.80;;
16484;SDS011;8353;47.856;12.344;2022-11-20T09:22:44;1.63;;;1.23;;
16484;SDS011;8353;47.856;12.344;2022-11-20T09:25:15;1.13;;;1.03;;
16484;SDS011;8353;47.856;12.344;2022-11-20T09:27:47;1.00;;;0.90;;
16484;SDS011;8353;47.856;12.344;2022-11-20T09:30:18;1.20;;;1.10;;
16484;SDS011;8353;47.856;12.344;2022-11-20T09:32:48;1.50;;;1.40;;
16484;SDS011;8353;47.856;12.344;2022-11-20T09:35:19;1.20;;;1.10;;
16484;SDS011;8353;47.856;12.344;2022-11-20T09:37:50;0.97;;;0.60;;
16484;SDS011;8353;47.856;12.344;2022-11-20T09:40:21;0.60;;;0.60;;
16484;SDS011;8353;47.856;12.344;2022-11-20T09:42:56;0.90;;;0.60;;
16484;SDS011;8353;47.856;12.344;2022-11-20T09:45:36;1.27;;;0.70;;
16484;SDS011;8353;47.856;12.344;2022-11-20T09:48:14;0.80;;;0.70;;
16484;SDS011;8353;47.856;12.344;2022-11-20T09:51:12;0.77;;;0.77;;
16484;SDS011;8353;47.856;12.344;2022-11-20T09:53:53;0.83;;;0.60;;
16484;SDS011;8353;47.856;12.344;2022-11-20T09:56:36;1.07;;;0.40;;
16484;SDS011;8353;47.856;12.344;2022-11-20T09:59:30;0.40;;;0.40;;
16484;SDS011;8353;47.856;12.344;2022-11-20T10:02:12;0.57;;;0.50;;
16484;SDS011;8353;47.856;12.344;2022-11-20T10:04:47;0.60;;;0.60;;
16484;SDS011;8353;47.856;12.344;2022-11-20T10:07:23;1.07;;;0.40;;
16484;SDS011;8353;47.856;12.344;2022-11-20T10:09:59;0.40;;;0.40;;
16484;SDS011;8353;47.856;12.344;2022-11-20T10:12:32;0.40;;;0.33;;
16484;SDS011;8353;47.856;12.344;2022-11-20T10:15:12;0.30;;;0.30;;
16484;SDS011;8353;47.856;12.344;2022-11-20T10:18:00;0.30;;;0.30;;
16484;SDS011;8353;47.856;12.344;2022-11-20T10:20:43;0.30;;;0.30;;
16484;SDS011;8353;47.856;12.344;2022-11-20T10:26:21;0.20;;;0.20;;
16484;SDS011;8353;47.856;12.344;2022-11-20T10:28:59;0.53;;;0.30;;
16484;SDS011;8353;47.856;12.344;2022-11-20T10:31:39;0.87;;;0.40;;
16484;SDS011;8353;47.856;12.344;2022-11-20T10:34:18;1.13;;;0.83;;
16484;SDS011;8353;47.856;12.344;2022-11-20T10:36:56;1.03;;;0.63;;
16484;SDS011;8353;47.856;12.344;2022-11-20T10:39:32;1.53;;;1.20;;
16484;SDS011;8353;47.856;12.344;2022-11-20T10:42:10;0.80;;;0.80;;
16484;SDS011;8353;47.856;12.344;2022-11-20T10:44:46;0.67;;;0.50;;
16484;SDS011;8353;47.856;12.344;2022-11-20T10:47:32;1.00;;;0.90;;
16484;SDS011;8353;47.856;12.344;2022-11-20T10:50:03;1.33;;;0.40;;
16484;SDS011;8353;47.856;12.344;2022-11-20T10:52:41;0.30;;;0.30;;
16484;SDS011;8353;47.856;12.344;2022-11-20T10:55:25;0.30;;;0.30;;
16484;SDS011;8353;47.856;12.344;2022-11-20T10:58:03;0.70;;;0.37;;
16484;SDS011;8353;47.856;12.344;2022-11-20T11:00:41;0.60;;;0.60;;
16484;SDS011;8353;47.856;12.344;2022-11-20T11:03:19;0.50;;;0.50;;
16484;SDS011;8353;47.856;12.344;2022-11-20T11:05:54;1.93;;;1.57;;
16484;SDS011;8353;47.856;12.344;2022-11-20T11:08:32;2.83;;;2.60;;
16484;SDS011;8353;47.856;12.344;2022-11-20T11:11:09;1.03;;;0.90;;
16484;SDS011;8353;47.856;12.344;2022-11-20T11:13:50;1.17;;;0.80;;
16484;SDS011;8353;47.856;12.344;2022-11-20T11:16:21;0.50;;;0.50;;
16484;SDS011;8353;47.856;12.344;2022-11-20T11:19:04;0.40;;;0.40;;
16484;SDS011;8353;47.856;12.344;2022-11-20T11:21:34;0.50;;;0.50;;
16484;SDS011;8353;47.856;12.344;2022-11-20T11:24:15;0.93;;;0.40;;
16484;SDS011;8353;47.856;12.344;2022-11-20T11:26:55;0.30;;;0.30;;
16484;SDS011;8353;47.856;12.344;2022-11-20T11:29:27;0.67;;;0.50;;
16484;SDS011;8353;47.856;12.344;2022-11-20T11:32:03;0.70;;;0.50;;
16484;SDS011;8353;47.856;12.344;2022-11-20T11:34:36;0.30;;;0.30;;
16484;SDS011;8353;47.856;12.344;2022-11-20T11:37:10;0.40;;;0.40;;
16484;SDS011;8353;47.856;12.344;2022-11-20T11:39:46;0.77;;;0.73;;
16484;SDS011;8353;47.856;12.344;2022-11-20T11:42:17;0.47;;;0.47;;
16484;SDS011;8353;47.856;12.344;2022-11-20T11:44:49;0.30;;;0.30;;
16484;SDS011;8353;47.856;12.344;2022-11-20T11:47:43;0.70;;;0.50;;
16484;SDS011;8353;47.856;12.344;2022-11-20T11:50:18;0.93;;;0.40;;
16484;SDS011;8353;47.856;12.344;2022-11-20T11:52:56;1.10;;;0.70;;
16484;SDS011;8353;47.856;12.344;2022-11-20T11:55:35;0.63;;;0.43;;
16484;SDS011;8353;47.856;12.344;2022-11-20T11:58:10;0.87;;;0.50;;
16484;SDS011;8353;47.856;12.344;2022-11-20T12:00:49;0.73;;;0.30;;
16484;SDS011;8353;47.856;12.344;2022-11-20T12:03:24;1.03;;;0.40;;
16484;SDS011;8353;47.856;12.344;2022-11-20T12:06:01;5.37;;;3.10;;
16484;SDS011;8353;47.856;12.344;2022-11-20T12:08:38;0.40;;;0.40;;
16484;SDS011;8353;47.856;12.344;2022-11-20T12:11:14;2.30;;;0.60;;
16484;SDS011;8353;47.856;12.344;2022-11-20T12:13:50;0.53;;;0.50;;
16484;SDS011;8353;47.856;12.344;2022-11-20T12:16:26;1.03;;;0.80;;
16484;SDS011;8353;47.856;12.344;2022-11-20T12:18:57;0.53;;;0.53;;
16484;SDS011;8353;47.856;12.344;2022-11-20T12:21:31;1.07;;;0.53;;
16484;SDS011;8353;47.856;12.344;2022-11-20T12:24:21;0.40;;;0.40;;
16484;SDS011;8353;47.856;12.344;2022-11-20T12:27:05;0.40;;;0.40;;
16484;SDS011;8353;47.856;12.344;2022-11-20T12:29:47;0.40;;;0.37;;
16484;SDS011;8353;47.856;12.344;2022-11-20T12:35:32;0.90;;;0.70;;
16484;SDS011;8353;47.856;12.344;2022-11-20T12:38:21;0.67;;;0.30;;
16484;SDS011;8353;47.856;12.344;2022-11-20T12:41:07;0.53;;;0.27;;
16484;SDS011;8353;47.856;12.344;2022-11-20T12:44:06;0.53;;;0.40;;
16484;SDS011;8353;47.856;12.344;2022-11-20T12:47:12;0.70;;;0.40;;
16484;SDS011;8353;47.856;12.344;2022-11-20T12:49:52;0.30;;;0.30;;
16484;SDS011;8353;47.856;12.344;2022-11-20T12:52:35;0.50;;;0.50;;
16484;SDS011;8353;47.856;12.344;2022-11-20T12:55:23;1.37;;;0.50;;
16484;SDS011;8353;47.856;12.344;2022-11-20T12:58:01;0.40;;;0.40;;
16484;SDS011;8353;47.856;12.344;2022-11-20T13:00:40;0.30;;;0.30;;
16484;SDS011;8353;47.856;12.344;2022-11-20T13:03:27;0.60;;;0.60;;
16484;SDS011;8353;47.856;12.344;2022-11-20T13:06:10;0.47;;;0.47;;
16484;SDS011;8353;47.856;12.344;2022-11-20T13:08:45;0.87;;;0.57;;
16484;SDS011;8353;47.856;12.344;2022-11-20T13:11:23;1.50;;;0.40;;
16484;SDS011;8353;47.856;12.344;2022-11-20T13:14:11;0.40;;;0.40;;
16484;SDS011;8353;47.856;12.344;2022-11-20T13:16:50;0.60;;;0.50;;
16484;SDS011;8353;47.856;12.344;2022-11-20T13:19:23;1.07;;;0.90;;
16484;SDS011;8353;47.856;12.344;2022-11-20T13:21:55;0.40;;;0.40;;
16484;SDS011;8353;47.856;12.344;2022-11-20T13:24:26;0.43;;;0.43;;
16484;SDS011;8353;47.856;12.344;2022-11-20T13:27:01;8.90;;;0.60;;
16484;SDS011;8353;47.856;12.344;2022-11-20T13:29:47;0.50;;;0.50;;
16484;SDS011;8353;47.856;12.344;2022-11-20T13:32:30;0.40;;;0.40;;
16484;SDS011;8353;47.856;12.344;2022-11-20T13:35:02;0.43;;;0.43;;
16484;SDS011;8353;47.856;12.344;2022-11-20T13:37:34;0.40;;;0.40;;
16484;SDS011;8353;47.856;12.344;2022-11-20T13:40:13;0.97;;;0.70;;
16484;SDS011;8353;47.856;12.344;2022-11-20T13:42:56;0.70;;;0.43;;
16484;SDS011;8353;47.856;12.344;2022-11-20T13:45:33;0.80;;;0.80;;
16484;SDS011;8353;47.856;12.344;2022-11-20T13:48:04;0.50;;;0.50;;
16484;SDS011;8353;47.856;12.344;2022-11-20T13:50:53;2.10;;;0.70;;
16484;SDS011;8353;47.856;12.344;2022-11-20T13:53:32;0.87;;;0.70;;
16484;SDS011;8353;47.856;12.344;2022-11-20T13:56:26;0.90;;;0.40;;
16484;SDS011;8353;47.856;12.344;2022-11-20T13:59:12;1.13;;;0.70;;
16484;SDS011;8353;47.856;12.344;2022-11-20T14:01:48;0.60;;;0.40;;
16484;SDS011;8353;47.856;12.344;2022-11-20T14:04:22;1.70;;;0.60;;
16484;SDS011;8353;47.856;12.344;2022-11-20T14:06:58;2.10;;;0.70;;
16484;SDS011;8353;47.856;12.344;2022-11-20T14:09:30;0.97;;;0.80;;
16484;SDS011;8353;47.856;12.344;2022-11-20T14:12:01;1.07;;;0.70;;
16484;SDS011;8353;47.856;12.344;2022-11-20T14:14:35;0.93;;;0.70;;
16484;SDS011;8353;47.856;12.344;2022-11-20T14:17:05;2.27;;;0.80;;
16484;SDS011;8353;47.856;12.344;2022-11-20T14:19:36;1.20;;;1.00;;
16484;SDS011;8353;47.856;12.344;2022-11-20T14:22:16;1.50;;;0.83;;
16484;SDS011;8353;47.856;12.344;2022-11-20T14:24:49;0.70;;;0.70;;
16484;SDS011;8353;47.856;12.344;2022-11-20T14:27:34;0.63;;;0.63;;
16484;SDS011;8353;47.856;12.344;2022-11-20T14:30:13;0.93;;;0.77;;
16484;SDS011;8353;47.856;12.344;2022-11-20T14:32:46;1.00;;;0.80;;
16484;SDS011;8353;47.856;12.344;2022-11-20T14:35:19;0.73;;;0.60;;
16484;SDS011;8353;47.856;12.344;2022-11-20T14:37:53;0.80;;;0.70;;
16484;SDS011;8353;47.856;12.344;2022-11-20T14:40:25;0.73;;;0.73;;
16484;SDS011;8353;47.856;12.344;2022-11-20T14:42:58;0.77;;;0.77;;
16484;SDS011;8353;47.856;12.344;2022-11-20T14:45:30;0.73;;;0.73;;
16484;SDS011;8353;47.856;12.344;2022-11-20T14:48:02;1.47;;;0.87;;
16484;SDS011;8353;47.856;12.344;2022-11-20T14:50:32;1.50;;;1.37;;
16484;SDS011;8353;47.856;12.344;2022-11-20T14:53:03;1.33;;;1.07;;
16484;SDS011;8353;47.856;12.344;2022-11-20T14:55:35;1.10;;;0.90;;
16484;SDS011;8353;47.856;12.344;2022-11-20T14:58:20;1.00;;;0.90;;
16484;SDS011;8353;47.856;12.344;2022-11-20T15:00:57;3.70;;;1.00;;
16484;SDS011;8353;47.856;12.344;2022-11-20T15:03:32;1.00;;;0.90;;
16484;SDS011;8353;47.856;12.344;2022-11-20T15:06:03;0.70;;;0.70;;
16484;SDS011;8353;47.856;12.344;2022-11-20T15:08:35;1.07;;;0.80;;
16484;SDS011;8353;47.856;12.344;2022-11-20T15:11:14;1.50;;;0.80;;
16484;SDS011;8353;47.856;12.344;2022-11-20T15:13:47;0.53;;;0.53;;
16484;SDS011;8353;47.856;12.344;2022-11-20T15:16:20;1.77;;;0.80;;
16484;SDS011;8353;47.856;12.344;2022-11-20T15:18:52;0.80;;;0.70;;
16484;SDS011;8353;47.856;12.344;2022-11-20T15:21:24;1.97;;;1.87;;
16484;SDS011;8353;47.856;12.344;2022-11-20T15:23:57;1.83;;;1.73;;
16484;SDS011;8353;47.856;12.344;2022-11-20T15:26:28;0.80;;;0.80;;
16484;SDS011;8353;47.856;12.344;2022-11-20T15:29:00;1.03;;;0.90;;
16484;SDS011;8353;47.856;12.344;2022-11-20T15:31:32;1.50;;;1.40;;
16484;SDS011;8353;47.856;12.344;2022-11-20T15:34:04;1.20;;;1.10;;